Time;durP1;ratioP1;P1;durP2;ratioP2;P2;SDS_P1;SDS_P2;PMS_P1;PMS_P2;Temp;Humidity;BMP_temperature;BMP_pressure;BME280_temperature;BME280_humidity;BME280_pressure;Samples;Min_cycle;Max_cycle;Signal;HPM_P1;HPM_P2
2023/09/18 00:01:58;;;;;;;4.55;2.65;;;;;;;18.88;100.00;100152.00;5236836;28;20482;-72
2023/09/18 00:04:28;;;;;;;5.57;3.00;;;;;;;19.11;100.00;100148.44;5217436;28;20025;-70
2023/09/18 00:06:58;;;;;;;5.18;2.92;;;;;;;18.92;100.00;100145.50;5237070;28;20115;-72
2023/09/18 00:09:28;;;;;;;4.65;2.80;;;;;;;18.92;100.00;100147.34;5234852;28;20028;-71
2023/09/18 00:11:59;;;;;;;6.03;2.92;;;;;;;18.83;100.00;100151.53;5236860;28;20086;-72
2023/09/18 00:14:29;;;;;;;6.03;3.10;;;;;;;18.74;100.00;100152.19;5237611;28;20565;-71
2023/09/18 00:17:00;;;;;;;4.13;2.70;;;;;;;18.70;100.00;100155.19;5239360;28;20024;-73
2023/09/18 00:19:32;;;;;;;4.20;2.50;;;;;;;18.60;100.00;100161.28;5236531;28;20195;-72
2023/09/18 00:22:03;;;;;;;5.93;2.85;;;;;;;18.49;100.00;100158.63;5235615;28;20031;-71
2023/09/18 00:24:33;;;;;;;6.43;3.08;;;;;;;18.49;100.00;100151.50;5235447;28;20029;-72
2023/09/18 00:27:04;;;;;;;5.53;2.90;;;;;;;18.64;100.00;100149.50;5232602;28;20040;-71
2023/09/18 00:29:34;;;;;;;4.43;3.00;;;;;;;18.62;100.00;100141.69;5234657;28;20021;-72
2023/09/18 00:32:05;;;;;;;3.67;2.70;;;;;;;18.58;100.00;100136.75;5236312;28;20031;-72
2023/09/18 00:34:35;;;;;;;5.00;3.10;;;;;;;18.75;100.00;100134.53;5227197;28;20279;-72
2023/09/18 00:37:06;;;;;;;5.05;3.00;;;;;;;18.79;100.00;100122.72;5230593;28;20032;-72
2023/09/18 00:39:36;;;;;;;5.85;3.33;;;;;;;18.65;100.00;100119.47;5233888;28;20027;-72
2023/09/18 00:42:06;;;;;;;5.38;3.33;;;;;;;18.84;100.00;100124.06;5231248;28;20028;-72
2023/09/18 00:44:37;;;;;;;6.38;3.40;;;;;;;18.70;100.00;100128.72;5233539;28;20020;-72
2023/09/18 00:47:08;;;;;;;5.75;3.20;;;;;;;18.71;100.00;100111.88;5230704;28;20029;-72
2023/09/18 00:49:41;;;;;;;6.85;3.42;;;;;;;18.51;100.00;100109.06;5234494;28;20162;-72
2023/09/18 00:52:12;;;;;;;5.00;3.58;;;;;;;18.51;100.00;100101.13;5213261;28;20031;-72
2023/09/18 00:54:43;;;;;;;5.53;4.15;;;;;;;18.40;100.00;100095.78;5232323;28;20394;-70
2023/09/18 00:57:14;;;;;;;7.22;4.22;;;;;;;18.22;100.00;100091.84;5214585;28;20024;-72
2023/09/18 00:59:45;;;;;;;7.38;4.80;;;;;;;18.27;100.00;100071.16;5234045;28;20031;-70
2023/09/18 01:02:15;;;;;;;6.35;3.42;;;;;;;18.25;100.00;100075.72;5237281;28;20024;-72
2023/09/18 01:04:47;;;;;;;6.75;4.43;;;;;;;18.14;100.00;100076.53;5231599;28;20020;-72
2023/09/18 01:07:18;;;;;;;7.75;4.35;;;;;;;18.25;100.00;100073.06;5233064;28;20017;-72
2023/09/18 01:09:48;;;;;;;5.47;3.72;;;;;;;18.23;100.00;100065.28;5230069;28;20160;-71
2023/09/18 01:12:45;;;;;;;5.90;4.20;;;;;;;18.15;100.00;100074.75;5216557;28;20024;-72
2023/09/18 01:15:46;;;;;;;6.13;3.97;;;;;;;18.18;100.00;100061.28;5168657;28;20581;-70
2023/09/18 01:18:17;;;;;;;6.65;4.35;;;;;;;18.11;100.00;100052.09;4788277;28;20627;-71
2023/09/18 01:20:47;;;;;;;7.13;3.92;;;;;;;18.07;100.00;100037.41;4991901;28;20254;-70
2023/09/18 01:23:22;;;;;;;6.32;3.70;;;;;;;18.08;100.00;100037.31;4821208;28;20809;-70
2023/09/18 01:25:52;;;;;;;6.13;3.78;;;;;;;18.04;100.00;100038.47;4944746;28;20793;-70
2023/09/18 01:28:23;;;;;;;7.80;3.90;;;;;;;17.97;100.00;100036.44;4848644;28;20787;-70
2023/09/18 01:30:53;;;;;;;6.30;3.60;;;;;;;17.97;100.00;100031.16;4748587;28;20741;-73
2023/09/18 01:33:25;;;;;;;5.85;3.72;;;;;;;17.91;100.00;100037.72;4853620;28;20036;-73
2023/09/18 01:35:56;;;;;;;6.00;4.03;;;;;;;17.83;100.00;100036.59;5233533;28;20028;-73
2023/09/18 01:38:28;;;;;;;5.72;3.20;;;;;;;17.88;100.00;100031.81;5232873;28;20498;-73
2023/09/18 01:40:59;;;;;;;5.47;3.45;;;;;;;17.90;100.00;100024.59;5230079;28;20032;-72
2023/09/18 01:43:30;;;;;;;5.85;3.90;;;;;;;17.95;100.00;100017.16;5234082;28;20521;-72
2023/09/18 01:46:01;;;;;;;9.25;3.65;;;;;;;18.06;100.00;100019.88;5231995;28;20036;-73
2023/09/18 01:48:31;;;;;;;4.97;3.72;;;;;;;18.13;100.00;100015.78;5231085;28;20033;-73
2023/09/18 01:51:02;;;;;;;5.57;3.42;;;;;;;18.21;100.00;100008.97;5232264;28;20435;-73
2023/09/18 01:53:32;;;;;;;5.60;3.42;;;;;;;18.22;100.00;100008.03;5232761;28;20123;-73
2023/09/18 01:56:02;;;;;;;5.05;3.40;;;;;;;18.07;100.00;100001.25;5233112;28;20028;-72
2023/09/18 01:58:33;;;;;;;5.80;3.50;;;;;;;18.10;100.00;100006.31;5215111;28;20032;-72
2023/09/18 02:01:04;;;;;;;12.13;3.63;;;;;;;18.09;100.00;100001.13;5233619;28;20047;-74
2023/09/18 02:03:34;;;;;;;5.35;3.33;;;;;;;18.14;100.00;99999.81;5218199;28;20078;-72
2023/09/18 02:06:05;;;;;;;4.93;3.60;;;;;;;18.14;100.00;99999.00;5230655;28;20783;-72
2023/09/18 02:08:35;;;;;;;5.25;3.75;;;;;;;18.19;100.00;99994.19;5231031;28;20072;-72
2023/09/18 02:11:05;;;;;;;5.75;3.38;;;;;;;18.16;100.00;99986.50;5230089;28;20480;-72
2023/09/18 02:13:36;;;;;;;5.15;3.63;;;;;;;18.17;100.00;99985.53;5232138;28;20044;-73
2023/09/18 02:16:06;;;;;;;8.15;3.97;;;;;;;18.16;100.00;99987.31;5214669;28;20029;-72
2023/09/18 02:18:36;;;;;;;7.40;3.55;;;;;;;18.17;100.00;99980.22;5236159;28;20028;-73
2023/09/18 02:21:06;;;;;;;7.50;3.80;;;;;;;18.14;100.00;99977.81;5215714;28;20032;-72
2023/09/18 02:23:37;;;;;;;6.18;3.75;;;;;;;18.12;100.00;99975.28;5233098;28;20021;-73
2023/09/18 02:26:08;;;;;;;7.95;3.70;;;;;;;18.05;100.00;99970.56;5230260;28;20117;-73
2023/09/18 02:28:38;;;;;;;6.07;3.75;;;;;;;17.97;100.00;99981.72;5215845;28;20374;-73
2023/09/18 02:31:09;;;;;;;5.15;3.80;;;;;;;18.02;100.00;99978.75;5233476;28;20211;-73
2023/09/18 02:33:40;;;;;;;7.03;3.88;;;;;;;18.17;100.00;99980.22;5215108;28;20036;-73
2023/09/18 02:36:10;;;;;;;7.50;3.92;;;;;;;18.07;100.00;99979.22;5231928;28;20028;-72
2023/09/18 02:38:40;;;;;;;7.38;3.83;;;;;;;18.05;100.00;99973.22;5235101;28;20032;-72
2023/09/18 02:41:10;;;;;;;5.80;3.60;;;;;;;18.07;100.00;99968.66;5233556;28;20028;-70
2023/09/18 02:43:41;;;;;;;5.82;3.67;;;;;;;18.10;100.00;99968.41;5233616;28;20111;-72
2023/09/18 02:46:11;;;;;;;5.65;3.70;;;;;;;18.09;100.00;99966.72;5232255;28;20111;-72
2023/09/18 02:48:41;;;;;;;5.25;3.70;;;;;;;18.07;100.00;99963.38;5235256;28;20075;-72
2023/09/18 02:51:12;;;;;;;7.03;4.13;;;;;;;18.05;100.00;99960.00;5233539;28;20044;-70
2023/09/18 02:53:42;;;;;;;5.07;3.70;;;;;;;17.99;100.00;99955.19;5235738;28;20512;-72
2023/09/18 02:56:13;;;;;;;7.85;4.22;;;;;;;17.95;100.00;99951.06;5229249;28;20115;-71
2023/09/18 02:58:43;;;;;;;5.15;3.88;;;;;;;17.90;100.00;99948.78;5234483;28;20516;-73
2023/09/18 03:01:14;;;;;;;9.20;4.70;;;;;;;17.88;100.00;99952.50;5213327;28;20124;-71
2023/09/18 03:03:44;;;;;;;5.80;3.85;;;;;;;17.87;100.00;99941.09;5234981;28;20451;-72
2023/09/18 03:06:15;;;;;;;5.57;4.00;;;;;;;17.85;100.00;99935.03;5215782;28;20040;-73
2023/09/18 03:08:45;;;;;;;7.15;4.38;;;;;;;17.79;100.00;99926.75;5216342;28;20231;-72
2023/09/18 03:11:16;;;;;;;9.07;4.50;;;;;;;17.79;100.00;99935.53;5216020;28;20043;-72
2023/09/18 03:13:47;;;;;;;6.50;4.25;;;;;;;17.66;100.00;99931.28;5216792;28;20021;-72
2023/09/18 03:16:17;;;;;;;6.88;4.95;;;;;;;17.72;100.00;99922.88;5232748;28;20024;-73
2023/09/18 03:18:48;;;;;;;6.45;4.15;;;;;;;17.70;100.00;99922.16;5235638;28;20064;-72
2023/09/18 03:21:19;;;;;;;6.70;4.18;;;;;;;17.74;100.00;99927.09;5234840;28;20025;-72
2023/09/18 03:23:50;;;;;;;7.85;4.88;;;;;;;17.79;100.00;99919.66;5235737;28;20119;-73
2023/09/18 03:26:20;;;;;;;7.03;3.97;;;;;;;17.74;100.00;99915.66;5216062;28;20051;-72
2023/09/18 03:28:50;;;;;;;5.25;3.80;;;;;;;17.72;100.00;99915.81;5239707;28;20029;-71
2023/09/18 03:31:20;;;;;;;5.78;3.95;;;;;;;17.81;100.00;99903.69;5238229;28;20617;-71
2023/09/18 03:33:51;;;;;;;5.63;3.78;;;;;;;17.82;100.00;99895.63;5239627;28;20051;-72
2023/09/18 03:36:23;;;;;;;12.15;4.30;;;;;;;17.82;100.00;99890.34;5236880;28;20032;-72
2023/09/18 03:38:53;;;;;;;5.35;3.72;;;;;;;17.91;100.00;99894.94;5220004;28;20024;-72
2023/09/18 03:41:24;;;;;;;6.30;4.05;;;;;;;17.95;100.00;99884.94;5236194;28;20661;-73
2023/09/18 03:43:54;;;;;;;7.75;4.47;;;;;;;18.05;100.00;99881.50;5238620;28;20086;-73
2023/09/18 03:46:25;;;;;;;6.75;4.03;;;;;;;18.02;100.00;99887.00;5219655;28;20029;-72
2023/09/18 03:48:57;;;;;;;9.52;4.28;;;;;;;17.97;100.00;99883.88;5218783;28;20032;-72
2023/09/18 03:51:27;;;;;;;6.13;4.05;;;;;;;18.00;100.00;99877.53;5216084;28;20055;-73
2023/09/18 03:53:58;;;;;;;6.75;4.38;;;;;;;17.93;100.00;99865.72;5237521;28;20060;-72
2023/09/18 03:56:28;;;;;;;7.90;4.40;;;;;;;17.92;100.00;99870.19;5218679;28;20281;-70
2023/09/18 03:59:00;;;;;;;7.95;4.15;;;;;;;17.89;100.00;99862.50;5239906;28;20311;-73
2023/09/18 04:01:31;;;;;;;6.60;4.40;;;;;;;17.89;100.00;99856.34;5219175;28;20032;-72
2023/09/18 04:04:02;;;;;;;6.88;4.40;;;;;;;17.87;100.00;99855.63;5238840;28;20463;-71
2023/09/18 04:06:43;;;;;;;7.15;4.47;;;;;;;17.78;100.00;99854.53;5236060;28;20059;-72
2023/09/18 04:09:15;;;;;;;8.82;4.15;;;;;;;17.77;100.00;99849.34;5213439;28;20466;-72
2023/09/18 04:11:45;;;;;;;5.68;3.80;;;;;;;17.73;100.00;99837.31;5237161;28;20111;-72
2023/09/18 04:14:15;;;;;;;8.07;4.10;;;;;;;17.79;100.00;99826.31;5237107;28;20111;-72
2023/09/18 04:16:46;;;;;;;5.95;4.00;;;;;;;17.69;100.00;99823.50;5238662;28;20494;-72
2023/09/18 04:19:16;;;;;;;8.15;4.00;;;;;;;17.71;100.00;99818.09;5219613;28;20122;-73
2023/09/18 04:21:46;;;;;;;6.47;3.65;;;;;;;17.71;100.00;99818.97;5237701;28;20020;-73
2023/09/18 04:24:16;;;;;;;5.97;3.88;;;;;;;17.72;100.00;99818.00;5237928;28;20023;-72
2023/09/18 04:26:50;;;;;;;6.07;4.03;;;;;;;17.72;100.00;99809.22;5236448;28;20028;-73
2023/09/18 04:29:20;;;;;;;5.28;3.58;;;;;;;17.76;100.00;99802.72;5233670;28;20028;-73
2023/09/18 04:31:51;;;;;;;6.70;3.90;;;;;;;17.79;100.00;99794.59;5234597;28;20390;-72
2023/09/18 04:34:22;;;;;;;5.85;3.53;;;;;;;17.82;100.00;99794.34;5217688;28;20028;-70
2023/09/18 04:36:52;;;;;;;5.75;3.90;;;;;;;17.83;100.00;99785.44;5238481;28;20024;-73
2023/09/18 04:39:23;;;;;;;8.02;3.85;;;;;;;17.84;100.00;99776.56;5235546;28;20450;-72
2023/09/18 04:41:53;;;;;;;7.30;4.07;;;;;;;17.87;100.00;99773.66;5233996;28;20388;-73
2023/09/18 04:44:23;;;;;;;6.03;4.13;;;;;;;17.87;100.00;99776.31;5236911;28;20356;-70
2023/09/18 04:46:54;;;;;;;7.68;4.15;;;;;;;17.88;100.00;99772.72;5235792;28;20024;-72
2023/09/18 04:49:24;;;;;;;5.72;3.67;;;;;;;17.90;100.00;99779.56;5237576;28;20486;-72
2023/09/18 04:51:55;;;;;;;7.22;3.67;;;;;;;18.02;100.00;99769.81;5238539;28;20028;-73
2023/09/18 04:54:25;;;;;;;5.50;3.90;;;;;;;18.11;100.00;99769.09;5220491;28;20058;-71
2023/09/18 04:56:56;;;;;;;5.00;3.65;;;;;;;18.14;100.00;99764.41;5221392;28;20021;-72
2023/09/18 04:59:26;;;;;;;6.05;3.67;;;;;;;18.11;100.00;99758.50;5219914;28;20032;-73
2023/09/18 05:01:56;;;;;;;6.20;3.97;;;;;;;18.20;100.00;99760.44;5237932;28;20032;-72
2023/09/18 05:04:26;;;;;;;6.20;3.70;;;;;;;18.23;100.00;99758.41;5230367;28;20128;-72
2023/09/18 05:06:57;;;;;;;6.93;4.00;;;;;;;18.32;100.00;99746.28;5218338;28;20028;-71
2023/09/18 05:09:27;;;;;;;5.07;3.72;;;;;;;18.25;100.00;99752.97;5221281;28;20028;-73
2023/09/18 05:11:58;;;;;;;7.10;4.20;;;;;;;18.39;100.00;99742.16;5219480;28;20024;-72
2023/09/18 05:14:28;;;;;;;8.00;3.60;;;;;;;18.48;100.00;99742.25;5235679;28;20483;-71
2023/09/18 05:16:58;;;;;;;5.55;3.90;;;;;;;18.52;100.00;99742.84;5240222;28;20028;-72
2023/09/18 05:19:28;;;;;;;5.60;3.80;;;;;;;18.47;100.00;99740.56;5219973;28;20108;-71
2023/09/18 05:21:59;;;;;;;4.80;3.47;;;;;;;18.49;100.00;99727.22;5222454;28;20389;-72
2023/09/18 05:24:29;;;;;;;5.97;3.70;;;;;;;18.62;100.00;99727.88;5219449;28;20029;-72
2023/09/18 05:26:59;;;;;;;4.97;3.60;;;;;;;18.73;100.00;99725.22;5239990;28;20481;-72
2023/09/18 05:29:29;;;;;;;7.55;3.75;;;;;;;18.71;100.00;99719.22;5238063;28;20077;-71
2023/09/18 05:32:00;;;;;;;5.90;3.53;;;;;;;18.84;100.00;99716.28;5239487;28;20032;-72
2023/09/18 05:34:31;;;;;;;9.63;3.67;;;;;;;18.97;100.00;99708.97;5238501;28;20039;-72
2023/09/18 05:37:02;;;;;;;5.85;3.40;;;;;;;19.03;100.00;99707.63;5240116;28;20528;-72
2023/09/18 05:39:32;;;;;;;6.00;3.35;;;;;;;19.17;100.00;99710.84;5238518;28;20060;-72
2023/09/18 05:42:03;;;;;;;4.57;3.10;;;;;;;19.32;100.00;99714.84;5239294;28;20500;-72
2023/09/18 05:44:33;;;;;;;4.30;3.28;;;;;;;19.46;100.00;99698.59;5237286;28;20078;-72
2023/09/18 05:47:03;;;;;;;9.63;3.53;;;;;;;19.67;100.00;99695.91;5220176;28;20016;-72
2023/09/18 05:49:35;;;;;;;6.65;3.17;;;;;;;19.76;100.00;99693.28;5234366;28;20505;-72
2023/09/18 05:52:06;;;;;;;4.80;3.30;;;;;;;19.80;100.00;99689.38;5237172;28;20119;-72
2023/09/18 05:54:36;;;;;;;5.00;2.90;;;;;;;19.96;100.00;99687.06;5236346;28;20103;-72
2023/09/18 05:57:07;;;;;;;6.15;3.58;;;;;;;19.99;100.00;99688.63;5237470;28;20021;-71
2023/09/18 05:59:38;;;;;;;8.63;2.90;;;;;;;20.05;100.00;99699.59;5219482;28;20028;-72
2023/09/18 06:02:08;;;;;;;5.63;3.33;;;;;;;20.09;100.00;99706.28;5237581;28;20035;-72
2023/09/18 06:04:39;;;;;;;6.45;3.53;;;;;;;20.09;100.00;99711.59;5237996;28;20021;-72
2023/09/18 06:07:09;;;;;;;5.72;3.22;;;;;;;20.18;100.00;99717.91;5239194;28;20488;-72
2023/09/18 06:09:39;;;;;;;4.88;3.47;;;;;;;20.18;100.00;99724.06;5217799;28;20504;-72
2023/09/18 06:12:10;;;;;;;8.80;3.57;;;;;;;20.33;100.00;99721.84;5238756;28;20027;-72
2023/09/18 06:14:40;;;;;;;6.38;3.78;;;;;;;20.16;100.00;99723.34;5220219;28;20357;-73
2023/09/18 06:17:11;;;;;;;6.40;4.00;;;;;;;20.06;100.00;99721.63;5236715;28;20362;-73
2023/09/18 06:19:42;;;;;;;5.60;4.13;;;;;;;20.17;100.00;99713.56;5235664;28;20082;-72
2023/09/18 06:22:13;;;;;;;6.57;4.00;;;;;;;20.20;100.00;99722.13;5232561;28;20024;-72
2023/09/18 06:24:43;;;;;;;6.65;3.95;;;;;;;20.19;100.00;99715.13;5236321;28;20032;-72
2023/09/18 06:27:14;;;;;;;6.57;4.40;;;;;;;20.29;100.00;99723.94;5235329;28;20040;-71
2023/09/18 06:29:44;;;;;;;7.25;3.72;;;;;;;20.29;100.00;99717.81;5234482;28;20021;-72
2023/09/18 06:32:14;;;;;;;5.68;3.60;;;;;;;20.42;100.00;99708.59;5237037;28;20279;-71
2023/09/18 06:34:45;;;;;;;6.55;3.92;;;;;;;20.51;100.00;99696.31;5235591;28;20024;-72
2023/09/18 06:37:15;;;;;;;5.55;3.25;;;;;;;20.68;100.00;99689.34;5217391;28;20025;-71
2023/09/18 06:39:46;;;;;;;5.03;3.42;;;;;;;20.67;100.00;99684.16;5234687;28;20017;-72
2023/09/18 06:42:16;;;;;;;5.10;3.28;;;;;;;20.85;99.71;99674.53;5217423;28;20456;-71
2023/09/18 06:44:46;;;;;;;3.88;2.92;;;;;;;21.13;99.38;99666.56;5237496;28;20029;-72
2023/09/18 06:47:17;;;;;;;5.95;2.97;;;;;;;21.19;97.29;99663.31;5237567;28;20031;-71
2023/09/18 06:49:47;;;;;;;6.55;2.92;;;;;;;21.49;96.11;99659.59;5216553;28;20463;-72
2023/09/18 06:52:17;;;;;;;7.00;3.08;;;;;;;21.54;94.78;99649.38;5235693;28;20029;-71
2023/09/18 06:54:47;;;;;;;3.45;2.67;;;;;;;21.70;95.55;99639.81;5236133;28;20512;-73
2023/09/18 06:57:18;;;;;;;4.10;2.60;;;;;;;21.90;93.97;99628.06;5236787;28;20024;-72
2023/09/18 06:59:48;;;;;;;4.35;3.00;;;;;;;21.85;93.45;99619.72;5237476;28;20332;-71
2023/09/18 07:02:18;;;;;;;5.30;2.83;;;;;;;22.10;91.51;99607.50;5239194;28;20025;-72
2023/09/18 07:04:49;;;;;;;3.53;2.30;;;;;;;22.21;90.35;99600.13;5223473;28;20024;-72
2023/09/18 07:07:24;;;;;;;3.38;2.28;;;;;;;22.13;90.03;99596.56;5238395;28;20070;-73
2023/09/18 07:09:55;;;;;;;3.47;2.33;;;;;;;22.20;90.96;99598.47;5239375;28;20624;-72
2023/09/18 07:12:25;;;;;;;4.10;2.70;;;;;;;22.00;92.41;99617.38;5239017;28;20042;-72
2023/09/18 07:14:56;;;;;;;5.40;2.50;;;;;;;21.92;93.02;99620.78;5239520;28;20032;-74
2023/09/18 07:17:26;;;;;;;3.78;2.40;;;;;;;21.76;94.85;99604.63;5240956;28;20044;-72
2023/09/18 07:19:56;;;;;;;4.07;2.60;;;;;;;21.56;94.23;99607.50;5227292;28;20442;-72
2023/09/18 07:22:27;;;;;;;4.80;2.47;;;;;;;21.46;95.91;99617.34;5239241;28;20032;-72
2023/09/18 07:24:57;;;;;;;5.05;2.90;;;;;;;21.48;95.15;99620.69;5239846;28;20050;-72
2023/09/18 07:27:28;;;;;;;6.22;3.03;;;;;;;21.26;97.71;99623.72;5238950;28;20032;-70
2023/09/18 07:29:58;;;;;;;5.00;2.67;;;;;;;21.19;98.59;99619.94;5240851;28;20031;-72
2023/09/18 07:32:28;;;;;;;5.47;2.72;;;;;;;21.18;99.35;99624.44;5240180;28;20108;-71
2023/09/18 07:34:59;;;;;;;4.00;2.95;;;;;;;21.18;100.00;99631.56;5241927;28;20033;-72
2023/09/18 07:37:30;;;;;;;4.25;2.67;;;;;;;21.26;99.93;99623.72;5240114;28;20092;-73
2023/09/18 07:40:00;;;;;;;4.95;3.17;;;;;;;21.33;99.15;99624.78;5240825;28;20036;-73
2023/09/18 07:42:31;;;;;;;4.80;2.85;;;;;;;21.27;99.80;99623.53;5237961;28;20421;-72
2023/09/18 07:45:01;;;;;;;4.25;3.00;;;;;;;21.29;99.44;99636.72;5221845;28;20509;-73
2023/09/18 07:47:32;;;;;;;4.40;3.22;;;;;;;21.22;99.77;99625.00;5238290;28;20416;-72
2023/09/18 07:50:02;;;;;;;6.35;3.30;;;;;;;21.29;100.00;99623.41;5241460;28;20040;-72
2023/09/18 07:52:33;;;;;;;5.65;3.40;;;;;;;21.43;99.16;99629.09;5239814;28;20052;-72
2023/09/18 07:55:03;;;;;;;7.68;2.97;;;;;;;21.54;98.30;99633.41;5240465;28;20075;-72
2023/09/18 07:57:34;;;;;;;5.03;3.03;;;;;;;21.75;97.63;99636.72;5239679;28;20078;-72
2023/09/18 08:00:09;;;;;;;5.00;3.13;;;;;;;21.80;98.56;99645.94;5240634;28;20123;-72
2023/09/18 08:02:40;;;;;;;4.72;2.78;;;;;;;22.06;97.74;99643.41;5237094;28;20040;-73
2023/09/18 08:05:10;;;;;;;4.10;3.00;;;;;;;22.16;97.85;99644.16;5240275;28;20493;-72
2023/09/18 08:07:41;;;;;;;6.25;3.05;;;;;;;22.26;96.60;99651.09;5237932;28;20024;-73
2023/09/18 08:10:12;;;;;;;5.25;3.28;;;;;;;22.32;95.33;99655.00;5239958;28;20024;-72
2023/09/18 08:12:42;;;;;;;5.22;3.10;;;;;;;22.33;96.12;99646.00;5238155;28;20510;-72
2023/09/18 08:15:13;;;;;;;5.10;3.25;;;;;;;22.22;96.49;99646.25;5239964;28;20042;-71
2023/09/18 08:17:43;;;;;;;4.85;3.10;;;;;;;22.35;96.13;99649.34;5237265;28;20533;-73
2023/09/18 08:20:15;;;;;;;6.15;3.08;;;;;;;22.59;95.31;99649.66;5221650;28;20114;-73
2023/09/18 08:22:47;;;;;;;4.55;3.00;;;;;;;22.74;94.44;99640.94;5237933;28;20390;-72
2023/09/18 08:25:17;;;;;;;6.68;3.15;;;;;;;23.03;92.93;99652.19;5238966;28;20031;-72
2023/09/18 08:27:48;;;;;;;4.05;2.95;;;;;;;23.05;93.29;99661.69;5239070;28;20028;-73
2023/09/18 08:30:20;;;;;;;4.97;3.17;;;;;;;23.23;91.20;99662.50;5221786;28;20051;-73
2023/09/18 08:32:51;;;;;;;5.85;3.25;;;;;;;23.63;90.29;99659.25;5221088;28;20090;-73
2023/09/18 08:35:22;;;;;;;7.45;2.80;;;;;;;23.61;89.45;99658.59;5239241;28;20418;-72
2023/09/18 08:37:53;;;;;;;6.65;2.90;;;;;;;23.31;93.13;99657.25;5238599;28;20028;-73
2023/09/18 08:40:23;;;;;;;5.35;2.47;;;;;;;23.67;90.50;99676.66;5221668;28;20025;-73
2023/09/18 08:42:55;;;;;;;5.15;2.72;;;;;;;23.47;92.09;99662.69;5238556;28;20051;-73
2023/09/18 08:45:35;;;;;;;4.05;2.50;;;;;;;23.29;92.61;99659.25;5240037;28;20025;-73
2023/09/18 08:48:06;;;;;;;5.68;2.65;;;;;;;23.25;93.85;99671.22;5239813;28;20068;-72
2023/09/18 08:50:38;;;;;;;3.90;2.67;;;;;;;23.00;95.86;99671.97;5238676;28;20389;-73
2023/09/18 08:53:09;;;;;;;4.35;3.15;;;;;;;22.78;96.05;99669.81;5222188;28;20574;-72
2023/09/18 08:55:39;;;;;;;4.03;2.45;;;;;;;22.80;96.63;99656.31;5238310;28;20061;-73
2023/09/18 08:58:09;;;;;;;10.20;2.90;;;;;;;22.59;96.41;99666.44;5239617;28;20025;-71
2023/09/18 09:00:40;;;;;;;5.72;2.70;;;;;;;22.55;95.66;99666.91;5238349;28;20031;-72
2023/09/18 09:03:11;;;;;;;3.70;2.53;;;;;;;22.43;97.60;99662.81;5237654;28;20054;-72
2023/09/18 09:05:41;;;;;;;3.90;2.88;;;;;;;22.22;99.96;99664.88;5217811;28;20408;-72
2023/09/18 09:08:11;;;;;;;5.70;2.67;;;;;;;22.46;98.98;99679.31;5235773;28;20028;-72
2023/09/18 09:10:42;;;;;;;5.90;3.00;;;;;;;22.36;100.00;99673.19;5237079;28;20024;-72
2023/09/18 09:13:14;;;;;;;4.88;2.97;;;;;;;22.36;100.00;99667.88;5237520;28;20294;-72
2023/09/18 09:15:47;;;;;;;4.78;2.85;;;;;;;22.42;100.00;99656.63;5215265;28;20028;-72
2023/09/18 09:18:17;;;;;;;4.95;2.95;;;;;;;22.56;100.00;99650.78;5237889;28;20028;-72
2023/09/18 09:20:57;;;;;;;6.75;2.95;;;;;;;22.57;100.00;99654.28;5235239;28;20028;-73
2023/09/18 09:23:53;;;;;;;5.20;2.85;;;;;;;22.63;100.00;99654.50;5235765;28;20064;-71
2023/09/18 09:26:24;;;;;;;5.38;2.72;;;;;;;22.67;100.00;99666.53;5215903;28;20051;-73
2023/09/18 09:28:54;;;;;;;6.10;2.80;;;;;;;22.78;100.00;99666.28;5218889;28;20105;-73
2023/09/18 09:31:30;;;;;;;3.72;2.50;;;;;;;22.85;100.00;99662.84;5219409;28;20173;-72
2023/09/18 09:34:05;;;;;;;5.32;2.90;;;;;;;22.96;100.00;99651.13;5236573;28;20036;-73
2023/09/18 09:36:35;;;;;;;4.57;2.45;;;;;;;23.14;100.00;99650.13;5235469;28;20622;-72
2023/09/18 09:39:05;;;;;;;7.25;2.60;;;;;;;23.12;100.00;99644.13;5217675;28;20027;-73
2023/09/18 09:41:36;;;;;;;4.97;2.45;;;;;;;23.12;100.00;99644.13;5219441;28;20025;-72
2023/09/18 09:44:07;;;;;;;9.50;2.70;;;;;;;23.24;100.00;99648.22;5237122;28;20024;-73
2023/09/18 09:46:45;;;;;;;6.10;2.60;;;;;;;23.30;100.00;99634.25;5236600;28;20024;-73
2023/09/18 09:49:16;;;;;;;7.63;2.67;;;;;;;23.43;100.00;99642.66;5221065;28;20485;-72
2023/09/18 09:51:46;;;;;;;6.95;2.60;;;;;;;23.47;100.00;99652.00;5218461;28;20036;-73
2023/09/18 09:54:34;;;;;;;5.63;1.77;;;;;;;23.68;96.49;99657.78;5238632;28;20025;-72
2023/09/18 09:57:05;;;;;;;8.50;2.00;;;;;;;23.85;95.87;99650.75;5236874;28;20493;-72
2023/09/18 09:59:35;;;;;;;9.02;2.03;;;;;;;24.10;93.06;99661.34;5237237;28;20028;-72
2023/09/18 10:02:09;;;;;;;4.85;1.42;;;;;;;24.09;91.39;99654.34;5218205;28;20036;-73
2023/09/18 10:04:39;;;;;;;4.13;1.90;;;;;;;24.32;89.98;99660.75;5237515;28;20505;-72
2023/09/18 10:07:10;;;;;;;8.32;1.90;;;;;;;24.28;88.95;99669.25;5238181;28;20283;-72
2023/09/18 10:09:42;;;;;;;5.40;1.83;;;;;;;24.23;86.89;99672.38;5235759;28;20020;-73
2023/09/18 10:12:20;;;;;;;6.28;1.70;;;;;;;24.39;87.06;99672.44;5220243;28;20020;-72
2023/09/18 10:14:55;;;;;;;9.43;1.75;;;;;;;24.53;87.36;99677.19;5234409;28;20052;-73
2023/09/18 10:17:28;;;;;;;;;;;;;;;24.66;85.01;99671.34;5236377;28;20042;-72
2023/09/18 10:20:08;;;;;;;7.22;1.85;;;;;;;24.69;86.15;99671.03;5237552;28;19913;-73
2023/09/18 10:22:42;;;;;;;6.65;1.60;;;;;;;24.53;84.31;99663.81;5235442;28;20035;-73
2023/09/18 10:25:28;;;;;;;5.15;1.70;;;;;;;24.57;85.69;99665.16;5215762;28;20111;-72
2023/09/18 10:28:01;;;;;;;6.50;1.70;;;;;;;24.52;85.53;99670.16;5235494;28;20470;-73
2023/09/18 10:30:34;;;;;;;7.03;1.90;;;;;;;24.42;85.19;99681.97;5237186;28;20077;-71
2023/09/18 10:33:07;;;;;;;6.78;1.92;;;;;;;;;;5237255;28;20024;-73
2023/09/18 10:35:38;;;;;;;6.03;1.77;;;;;;;24.31;85.86;99687.59;5234679;28;20058;-72
2023/09/18 10:38:09;;;;;;;4.50;1.80;;;;;;;24.14;86.75;99693.91;5238593;28;20035;-72
2023/09/18 10:40:41;;;;;;;9.82;2.22;;;;;;;24.15;86.20;99690.22;5220231;28;20024;-72
2023/09/18 10:43:11;;;;;;;7.03;2.17;;;;;;;24.07;87.53;99685.69;5239657;28;20028;-71
2023/09/18 10:45:44;;;;;;;9.25;1.80;;;;;;;23.99;86.64;99680.31;5239012;28;20394;-73
2023/09/18 10:48:15;;;;;;;7.22;1.85;;;;;;;24.01;89.03;99659.63;5238815;28;20024;-72
2023/09/18 10:50:46;;;;;;;4.18;1.70;;;;;;;24.03;90.06;99662.97;5236199;28;20668;-73
2023/09/18 10:53:19;;;;;;;10.73;1.77;;;;;;;24.02;89.74;99658.63;5237786;28;20024;-73
2023/09/18 10:55:50;;;;;;;10.25;1.67;;;;;;;24.09;86.22;99661.50;5217985;28;20398;-73
2023/09/18 10:58:27;;;;;;;8.05;1.90;;;;;;;24.02;86.96;99672.00;5237215;28;20027;-73
2023/09/18 11:00:59;;;;;;;6.82;1.73;;;;;;;24.08;87.12;99668.66;5234372;28;20627;-72
2023/09/18 11:03:32;;;;;;;8.82;1.92;;;;;;;24.10;88.08;99656.00;5236642;28;20020;-72
2023/09/18 11:06:07;;;;;;;7.22;2.10;;;;;;;23.98;86.29;99659.97;5239635;28;20166;-72
2023/09/18 11:08:46;;;;;;;10.68;1.88;;;;;;;24.02;85.87;99668.50;5236541;28;20029;-73
2023/09/18 11:11:25;;;;;;;6.93;2.00;;;;;;;24.31;85.43;99664.41;5213439;28;20351;-72
2023/09/18 11:13:56;;;;;;;8.30;1.58;;;;;;;24.26;85.96;99672.09;5218511;28;20040;-73
2023/09/18 11:16:26;;;;;;;9.55;1.70;;;;;;;24.37;87.49;99668.28;5237415;28;20029;-73
2023/09/18 11:19:00;;;;;;;5.27;1.57;;;;;;;24.40;86.38;99662.59;5218832;28;20123;-73
2023/09/18 11:21:34;;;;;;;5.93;1.85;;;;;;;24.51;85.82;99680.97;5236945;28;20020;-72
2023/09/18 11:24:16;;;;;;;7.47;1.80;;;;;;;24.55;85.82;99693.88;5237468;28;20024;-73
2023/09/18 11:26:49;;;;;;;10.07;1.70;;;;;;;24.46;83.55;99689.50;5235071;28;20382;-73
2023/09/18 11:29:23;;;;;;;4.18;1.35;;;;;;;24.55;83.06;99680.50;5237546;28;20025;-72
2023/09/18 11:31:56;;;;;;;2.90;1.50;;;;;;;24.59;83.53;99695.22;5235784;28;20300;-72
2023/09/18 11:34:31;;;;;;;10.55;1.77;;;;;;;24.59;83.38;99689.06;5237568;28;20508;-73
2023/09/18 11:37:04;;;;;;;5.18;1.38;;;;;;;24.56;83.51;99681.38;5236128;28;20090;-73
2023/09/18 11:39:38;;;;;;;9.65;1.80;;;;;;;24.72;83.68;99679.53;5214585;28;20489;-72
2023/09/18 11:42:08;;;;;;;5.10;1.40;;;;;;;24.86;84.96;99682.41;5225302;28;20113;-72
2023/09/18 11:44:43;;;;;;;6.60;1.85;;;;;;;24.82;83.77;99682.91;5242647;28;20107;-73
2023/09/18 11:47:21;;;;;;;4.57;1.50;;;;;;;24.85;84.49;99682.56;5229842;28;20024;-72